createdAt,value
2022-09-23T00:04:30.363Z,101018.19
2022-09-23T00:09:33.428Z,101018.19
2022-09-23T00:14:37.344Z,101007.47
2022-09-23T00:19:41.610Z,101014.34
2022-09-23T00:24:44.356Z,101011.28
2022-09-23T00:29:46.797Z,101001.78
2022-09-23T00:34:51.972Z,100995.13
2022-09-23T00:39:55.451Z,101004.56
2022-09-23T00:44:59.744Z,101003.25
2022-09-23T00:50:10.921Z,100997.75
2022-09-23T00:55:17.294Z,100988.03
2022-09-23T01:00:19.836Z,100990.88
2022-09-23T01:05:24.089Z,100988.16
2022-09-23T01:10:31.849Z,100983.22
2022-09-23T01:15:44.566Z,100975.84
2022-09-23T01:20:59.418Z,100968.97
2022-09-23T01:26:16.142Z,100976.34
2022-09-23T01:31:28.382Z,100963.44
2022-09-23T01:36:39.345Z,100963.13
2022-09-23T01:41:51.906Z,100952.84
2022-09-23T01:47:01.194Z,100946.00
2022-09-23T01:52:10.086Z,100942.97
2022-09-23T01:57:18.854Z,100943.88
2022-09-23T02:02:29.521Z,100935.50
2022-09-23T02:07:38.790Z,100930.41
2022-09-23T02:12:45.597Z,100930.13
2022-09-23T02:17:53.251Z,100929.59
2022-09-23T02:23:01.537Z,100927.75
2022-09-23T02:28:10.545Z,100914.00
2022-09-23T02:33:21.280Z,100919.44
2022-09-23T02:38:34.669Z,100913.31
2022-09-23T02:43:43.716Z,100905.81
2022-09-23T02:48:53.158Z,100909.78
2022-09-23T02:53:56.837Z,100898.09
2022-09-23T02:58:59.441Z,100895.44
2022-09-23T03:04:17.180Z,100894.63
2022-09-23T03:09:23.681Z,100896.56
2022-09-23T03:14:33.627Z,100888.50
2022-09-23T03:19:43.670Z,100900.38
2022-09-23T03:24:51.867Z,100893.81
2022-09-23T03:29:57.518Z,100882.53
2022-09-23T03:35:03.060Z,100885.97
2022-09-23T03:40:11.591Z,100887.19
2022-09-23T03:45:19.096Z,100881.66
2022-09-23T03:50:23.083Z,100876.50
2022-09-23T03:55:25.824Z,100862.97
2022-09-23T04:00:28.343Z,100852.75
2022-09-23T04:05:32.335Z,100854.47
2022-09-23T04:10:34.845Z,100857.66
2022-09-23T04:15:37.603Z,100842.72
2022-09-23T04:20:42.031Z,100847.56
2022-09-23T04:25:47.623Z,100836.47
2022-09-23T04:30:50.204Z,100839.63
2022-09-23T04:35:54.465Z,100836.38
2022-09-23T04:40:56.969Z,100828.50
2022-09-23T04:46:00.927Z,100836.78
2022-09-23T04:51:05.795Z,100822.97
2022-09-23T04:56:11.255Z,100823.75
2022-09-23T05:01:16.324Z,100824.81
2022-09-23T05:06:21.387Z,100833.78
2022-09-23T05:11:24.540Z,100830.00
2022-09-23T05:16:27.647Z,100837.00
2022-09-23T05:21:32.229Z,100844.41
2022-09-23T05:26:34.575Z,100839.09
2022-09-23T05:31:37.624Z,100838.47
2022-09-23T05:36:41.746Z,100833.84
2022-09-23T05:41:44.495Z,100834.50
2022-09-23T05:46:47.073Z,100820.31
2022-09-23T05:51:50.897Z,100828.50
2022-09-23T05:56:53.399Z,100826.69
2022-09-23T06:01:56.745Z,100832.97
2022-09-23T06:07:03.488Z,100819.19
2022-09-23T06:12:07.080Z,100826.94
2022-09-23T06:17:09.522Z,100826.41
2022-09-23T06:22:16.847Z,100828.56
2022-09-23T06:27:19.297Z,100830.97
2022-09-23T06:32:23.071Z,100832.53
2022-09-23T06:37:26.965Z,100833.53
2022-09-23T06:42:29.688Z,100830.13
2022-09-23T06:47:32.250Z,100830.31
2022-09-23T06:52:36.103Z,100826.97
2022-09-23T06:57:38.560Z,100829.50
2022-09-23T07:02:42.793Z,100821.81
2022-09-23T07:07:46.743Z,100830.63
2022-09-23T07:12:49.285Z,100826.41
2022-09-23T07:17:51.736Z,100831.47
2022-09-23T07:22:56.334Z,100833.25
2022-09-23T07:27:58.791Z,100828.66
2022-09-23T07:33:01.341Z,100824.06
2022-09-23T07:38:06.882Z,100826.25
2022-09-23T07:43:09.671Z,100821.59
2022-09-23T07:48:12.546Z,100813.41
2022-09-23T07:53:16.498Z,100821.78
2022-09-23T07:58:19.020Z,100820.84
2022-09-23T08:03:21.963Z,100822.69
2022-09-23T08:08:26.129Z,100822.75
2022-09-23T08:13:28.594Z,100818.13
2022-09-23T08:18:31.188Z,100814.31
2022-09-23T08:23:35.344Z,100819.50
2022-09-23T08:28:37.868Z,100820.06
2022-09-23T08:33:41.049Z,100816.22
2022-09-23T08:38:45.062Z,100804.56
2022-09-23T08:43:53.179Z,100803.66
2022-09-23T08:48:56.740Z,100798.41
2022-09-23T08:54:01.117Z,100793.53
2022-09-23T08:59:08.626Z,100789.41
2022-09-23T09:04:20.111Z,100790.38
2022-09-23T09:09:28.148Z,100780.59
2022-09-23T09:14:37.732Z,100776.97
2022-09-23T09:19:55.316Z,100780.81
2022-09-23T09:25:06.165Z,100764.41
2022-09-23T09:30:13.479Z,100765.00
2022-09-23T09:35:27.010Z,100761.69
2022-09-23T09:40:31.002Z,100761.88
2022-09-23T09:45:57.473Z,100744.91
2022-09-23T09:51:19.374Z,100742.81
2022-09-23T09:56:31.292Z,100744.72
2022-09-23T10:01:36.215Z,100737.78
2022-09-23T10:06:38.921Z,100735.38
2022-09-23T10:11:43.027Z,100728.41
2022-09-23T10:16:47.754Z,100715.03
2022-09-23T10:21:54.665Z,100723.31
2022-09-23T10:27:02.969Z,100724.25
2022-09-23T10:32:26.652Z,100724.34
2022-09-23T10:37:36.258Z,100719.81
2022-09-23T10:43:11.176Z,100714.66
2022-09-23T10:48:24.716Z,100705.91
2022-09-23T10:53:40.009Z,100692.94
2022-09-23T10:59:03.786Z,100697.81
2022-09-23T11:04:23.280Z,100689.47
2022-09-23T11:09:34.422Z,100675.53
2022-09-23T11:15:00.422Z,100673.88
2022-09-23T11:20:18.251Z,100666.66
2022-09-23T11:25:32.997Z,100656.88
2022-09-23T11:30:51.202Z,100662.22
2022-09-23T11:35:58.651Z,100651.91
2022-09-23T11:41:06.082Z,100646.16
2022-09-23T11:46:16.883Z,100648.31
2022-09-23T11:51:25.599Z,100643.53
2022-09-23T11:56:35.947Z,100637.56
2022-09-23T12:01:46.661Z,100615.63
2022-09-23T12:06:53.474Z,100623.09
2022-09-23T12:12:03.599Z,100617.84
2022-09-23T12:17:26.974Z,100595.50
2022-09-23T12:22:42.980Z,100601.13
2022-09-23T12:27:49.831Z,100592.38
2022-09-23T12:32:54.293Z,100593.97
2022-09-23T12:37:56.883Z,100600.72
2022-09-23T12:43:01.333Z,100589.25
2022-09-23T12:48:26.176Z,100582.91
2022-09-23T12:53:54.500Z,100585.09
2022-09-23T12:59:21.346Z,100573.03
2022-09-23T13:05:08.932Z,100554.09
2022-09-23T13:10:18.330Z,100559.47
2022-09-23T13:15:29.754Z,100549.25
2022-09-23T13:20:51.784Z,100534.25
2022-09-23T13:25:57.325Z,100532.03
2022-09-23T13:31:04.718Z,100522.66
2022-09-23T13:36:14.728Z,100512.22
2022-09-23T13:41:21.332Z,100511.25
2022-09-23T13:46:27.196Z,100498.88
2022-09-23T13:51:34.188Z,100494.69
2022-09-23T13:56:38.329Z,100481.38
2022-09-23T14:01:40.950Z,100484.22
2022-09-23T14:06:45.124Z,100492.09
2022-09-23T14:11:47.678Z,100489.28
2022-09-23T14:16:52.052Z,100472.59
2022-09-23T14:21:57.287Z,100468.66
2022-09-23T14:27:05.008Z,100469.13
2022-09-23T14:32:15.415Z,100460.94
2022-09-23T14:37:44.013Z,100455.97
2022-09-23T14:42:49.640Z,100441.59
2022-09-23T14:47:58.284Z,100440.00
2022-09-23T14:53:02.937Z,100433.88
2022-09-23T14:58:07.015Z,100436.66
2022-09-23T15:03:16.213Z,100437.72
2022-09-23T15:08:23.925Z,100433.94
2022-09-23T15:13:29.437Z,100425.72
2022-09-23T15:18:34.549Z,100433.19
2022-09-23T15:23:47.166Z,100428.25
2022-09-23T15:28:51.959Z,100413.25
2022-09-23T15:33:56.000Z,100411.13
2022-09-23T15:39:05.348Z,100418.94
2022-09-23T15:44:14.166Z,100414.75
2022-09-23T15:49:24.332Z,100413.25
2022-09-23T15:54:28.971Z,100419.97
2022-09-23T15:59:31.716Z,100405.66
2022-09-23T16:04:36.082Z,100412.06
2022-09-23T16:09:40.055Z,100395.41
2022-09-23T16:14:42.767Z,100407.91
2022-09-23T16:19:45.528Z,100404.84
2022-09-23T16:24:49.787Z,100395.09
2022-09-23T16:29:52.516Z,100403.78
2022-09-23T16:34:57.998Z,100395.19
2022-09-23T16:40:03.730Z,100397.72
2022-09-23T16:45:07.313Z,100398.31
2022-09-23T16:50:10.295Z,100401.09
2022-09-23T16:55:15.725Z,100398.44
2022-09-23T17:00:36.752Z,100396.91
2022-09-23T17:05:39.357Z,100400.94
2022-09-23T17:10:44.761Z,100396.19
2022-09-23T17:15:47.288Z,100394.19
2022-09-23T17:21:00.925Z,100388.88
2022-09-23T17:26:10.076Z,100382.50
2022-09-23T17:31:12.625Z,100385.56
2022-09-23T17:36:16.787Z,100384.28
2022-09-23T17:41:21.101Z,100378.53
2022-09-23T17:46:23.995Z,100374.75
2022-09-23T17:51:27.024Z,100379.41
2022-09-23T17:56:31.005Z,100381.31
2022-09-23T18:01:35.040Z,100381.16
2022-09-23T18:06:38.678Z,100384.63
2022-09-23T18:11:44.672Z,100378.97
2022-09-23T18:16:48.620Z,100376.53
2022-09-23T18:21:52.665Z,100384.16
2022-09-23T18:26:59.634Z,100381.47
2022-09-23T18:32:02.942Z,100378.19
2022-09-23T18:37:15.060Z,100391.94
2022-09-23T18:42:20.376Z,100393.97
2022-09-23T18:47:36.823Z,100385.28
2022-09-23T18:52:39.288Z,100389.56
2022-09-23T18:57:43.124Z,100393.09
2022-09-23T19:02:45.899Z,100392.25
2022-09-23T19:07:48.379Z,100393.00
2022-09-23T19:12:52.162Z,100394.41
2022-09-23T19:17:54.844Z,100389.03
2022-09-23T19:22:57.321Z,100384.28
2022-09-23T19:28:02.480Z,100393.72
2022-09-23T19:33:06.264Z,100378.72
2022-09-23T19:38:09.710Z,100391.13
2022-09-23T19:43:14.336Z,100393.13
2022-09-23T19:48:16.788Z,100378.03
2022-09-23T19:53:19.458Z,100373.44
2022-09-23T19:58:24.943Z,100373.69
2022-09-23T20:03:27.792Z,100363.56
2022-09-23T20:08:30.496Z,100365.38
2022-09-23T20:13:34.299Z,100367.22
2022-09-23T20:18:37.413Z,100377.63
2022-09-23T20:23:40.223Z,100367.06
2022-09-23T20:28:44.423Z,100366.69
2022-09-23T20:33:50.906Z,100360.41
2022-09-23T20:38:57.106Z,100361.78
2022-09-23T20:44:02.591Z,100354.53
2022-09-23T20:49:07.928Z,100348.28
2022-09-23T20:54:12.016Z,100341.69
2022-09-23T20:59:17.596Z,100343.63
2022-09-23T21:04:20.395Z,100335.88
2022-09-23T21:09:23.097Z,100336.91
2022-09-23T21:14:27.103Z,100334.47
2022-09-23T21:19:29.578Z,100323.16
2022-09-23T21:29:56.429Z,100332.47
2022-09-23T21:34:58.907Z,100330.88
2022-09-23T21:40:19.497Z,100332.22
2022-09-23T21:45:23.593Z,100323.19
2022-09-23T21:50:29.504Z,100333.28
2022-09-23T21:55:32.104Z,100337.44
2022-09-23T22:00:36.194Z,100331.13
2022-09-23T22:05:44.056Z,100323.75
2022-09-23T22:10:46.601Z,100327.56
2022-09-23T22:15:50.406Z,100338.41
2022-09-23T22:20:55.295Z,100333.00
2022-09-23T22:26:02.944Z,100328.69
2022-09-23T22:31:25.057Z,100326.66
2022-09-23T22:36:27.587Z,100331.63
2022-09-23T22:41:30.121Z,100321.81
2022-09-23T22:46:35.275Z,100319.56
2022-09-23T22:51:38.818Z,100314.47
2022-09-23T22:56:41.335Z,100313.78
2022-09-23T23:01:45.825Z,100307.31
2022-09-23T23:06:48.289Z,100310.06
2022-09-23T23:11:50.849Z,100310.69
2022-09-23T23:16:55.113Z,100298.00
2022-09-23T23:21:57.683Z,100297.59
2022-09-23T23:27:00.224Z,100295.72
2022-09-23T23:32:05.175Z,100288.13
2022-09-23T23:37:07.899Z,100298.72
2022-09-23T23:42:10.752Z,100281.28
2022-09-23T23:47:15.424Z,100275.88
2022-09-23T23:52:18.066Z,100275.84
2022-09-23T23:57:20.540Z,100275.34
